createdAt,value
2022-09-03T00:02:08.438Z,42.40
2022-09-03T00:04:48.017Z,41.08
2022-09-03T00:07:21.254Z,30.00
2022-09-03T00:09:55.611Z,32.17
2022-09-03T00:12:27.389Z,33.03
2022-09-03T00:15:01.834Z,37.58
2022-09-03T00:17:33.454Z,37.33
2022-09-03T00:20:06.367Z,38.50
2022-09-03T00:22:39.269Z,40.88
2022-09-03T00:25:13.004Z,37.55
2022-09-03T00:27:42.787Z,37.17
2022-09-03T00:30:14.635Z,38.33
2022-09-03T00:32:47.847Z,35.47
2022-09-03T00:35:20.835Z,41.67
2022-09-03T00:37:49.964Z,37.85
2022-09-03T00:40:33.468Z,37.30
2022-09-03T00:43:11.029Z,44.42
2022-09-03T00:45:45.499Z,38.45
2022-09-03T00:48:28.364Z,68.25
2022-09-03T00:51:11.844Z,85.43
2022-09-03T00:53:51.351Z,54.35
2022-09-03T00:56:28.347Z,50.97
2022-09-03T00:59:09.325Z,42.63
2022-09-03T01:01:47.831Z,42.47
2022-09-03T01:04:29.192Z,48.03
2022-09-03T01:07:06.059Z,38.45
2022-09-03T01:09:48.981Z,43.10
2022-09-03T01:12:25.344Z,51.97
2022-09-03T01:15:05.269Z,58.75
2022-09-03T01:17:45.575Z,46.53
2022-09-03T01:20:24.090Z,43.17
2022-09-03T01:23:29.086Z,61.65
2022-09-03T01:26:12.116Z,49.38
2022-09-03T01:28:55.294Z,44.73
2022-09-03T01:31:36.139Z,37.45
2022-09-03T01:34:14.128Z,82.20
2022-09-03T01:36:50.745Z,88.45
2022-09-03T01:39:27.664Z,66.30
2022-09-03T01:42:20.965Z,54.37
2022-09-03T01:45:12.037Z,49.33
2022-09-03T01:47:51.860Z,58.30
2022-09-03T01:50:34.766Z,49.58
2022-09-03T01:53:11.727Z,49.53
2022-09-03T01:55:56.030Z,67.97
2022-09-03T01:58:31.354Z,66.20
2022-09-03T02:01:07.206Z,83.60
2022-09-03T02:03:40.788Z,52.05
2022-09-03T02:06:09.033Z,39.17
2022-09-03T02:08:36.521Z,40.00
2022-09-03T02:11:07.991Z,41.77
2022-09-03T02:13:39.651Z,39.58
2022-09-03T02:16:14.009Z,40.47
2022-09-03T02:18:46.885Z,40.90
2022-09-03T02:21:17.733Z,29.20
2022-09-03T02:23:45.309Z,22.67
2022-09-03T02:26:17.521Z,29.05
2022-09-03T02:28:45.579Z,53.45
2022-09-03T02:31:14.720Z,49.73
2022-09-03T02:33:45.018Z,70.07
2022-09-03T02:36:15.356Z,52.67
2022-09-03T02:38:44.311Z,70.27
2022-09-03T02:41:15.003Z,43.17
2022-09-03T02:43:47.167Z,43.43
2022-09-03T02:46:21.845Z,66.53
2022-09-03T02:48:49.553Z,70.77
2022-09-03T02:51:17.052Z,41.70
2022-09-03T02:53:45.015Z,40.30
2022-09-03T02:56:12.951Z,43.90
2022-09-03T02:58:40.893Z,40.10
2022-09-03T03:01:08.466Z,30.63
2022-09-03T03:03:37.325Z,32.15
2022-09-03T03:06:07.215Z,49.47
2022-09-03T03:08:35.167Z,28.13
2022-09-03T03:11:02.956Z,31.50
2022-09-03T03:13:31.886Z,35.67
2022-09-03T03:16:00.748Z,32.97
2022-09-03T03:18:28.929Z,34.57
2022-09-03T03:20:57.915Z,34.17
2022-09-03T03:23:25.416Z,38.65
2022-09-03T03:25:52.912Z,37.95
2022-09-03T03:28:20.601Z,42.20
2022-09-03T03:30:48.996Z,48.15
2022-09-03T03:33:16.626Z,53.25
2022-09-03T03:35:44.115Z,43.88
2022-09-03T03:38:13.112Z,48.67
2022-09-03T03:40:40.643Z,51.63
2022-09-03T03:43:08.181Z,55.45
2022-09-03T03:45:35.810Z,59.47
2022-09-03T03:48:03.587Z,52.88
2022-09-03T03:50:31.082Z,56.10
2022-09-03T03:53:00.829Z,56.10
2022-09-03T03:55:34.999Z,54.47
2022-09-03T03:58:02.901Z,56.15
2022-09-03T04:00:30.373Z,53.45
2022-09-03T04:02:57.997Z,52.17
2022-09-03T04:05:25.532Z,48.65
2022-09-03T04:07:54.378Z,46.58
2022-09-03T04:10:21.936Z,49.28
2022-09-03T04:12:50.736Z,53.67
2022-09-03T04:15:18.309Z,52.90
2022-09-03T04:17:45.815Z,56.22
2022-09-03T04:20:13.299Z,51.45
2022-09-03T04:22:40.786Z,49.95
2022-09-03T04:25:09.130Z,51.25
2022-09-03T04:27:36.617Z,52.05
2022-09-03T04:30:06.327Z,51.90
2022-09-03T04:32:52.489Z,51.70
2022-09-03T04:35:20.873Z,51.55
2022-09-03T04:37:48.430Z,53.17
2022-09-03T04:40:15.955Z,55.33
2022-09-03T04:42:43.486Z,51.47
2022-09-03T04:45:18.501Z,54.13
2022-09-03T04:47:47.383Z,52.83
2022-09-03T04:50:14.930Z,55.60
2022-09-03T04:52:42.408Z,57.33
2022-09-03T04:55:12.055Z,51.40
2022-09-03T04:57:39.538Z,53.75
2022-09-03T05:00:11.191Z,47.25
2022-09-03T05:02:40.114Z,43.47
2022-09-03T05:05:08.243Z,41.55
2022-09-03T05:07:38.670Z,43.28
2022-09-03T05:10:08.202Z,44.00
2022-09-03T05:12:36.537Z,43.60
2022-09-03T05:15:05.416Z,43.88
2022-09-03T05:17:37.217Z,47.15
2022-09-03T05:20:08.441Z,49.50
2022-09-03T05:22:36.064Z,47.67
2022-09-03T05:25:03.592Z,34.70
2022-09-03T05:27:32.164Z,29.30
2022-09-03T05:29:59.957Z,27.27
2022-09-03T05:32:28.669Z,25.50
2022-09-03T05:34:56.624Z,29.73
2022-09-03T05:37:25.908Z,29.55
2022-09-03T05:39:53.902Z,23.98
2022-09-03T05:42:21.936Z,19.50
2022-09-03T05:44:49.956Z,19.52
2022-09-03T05:47:17.503Z,19.90
2022-09-03T05:49:44.984Z,17.83
2022-09-03T05:52:12.481Z,20.95
2022-09-03T05:54:41.316Z,18.67
2022-09-03T05:57:08.828Z,21.25
2022-09-03T05:59:36.319Z,17.83
2022-09-03T06:02:03.979Z,16.23
2022-09-03T06:04:31.612Z,17.27
2022-09-03T06:07:00.846Z,17.05
2022-09-03T06:09:28.327Z,19.52
2022-09-03T06:11:57.496Z,32.58
2022-09-03T06:14:27.173Z,16.55
2022-09-03T06:16:55.764Z,24.20
2022-09-03T06:19:23.656Z,9.40
2022-09-03T06:21:51.213Z,31.10
2022-09-03T06:24:23.182Z,10.10
2022-09-03T06:26:54.090Z,17.33
2022-09-03T06:29:22.923Z,18.65
2022-09-03T06:31:50.798Z,39.50
2022-09-03T06:34:19.336Z,10.05
2022-09-03T06:36:46.894Z,8.32
2022-09-03T06:39:14.386Z,20.85
2022-09-03T06:41:41.884Z,9.60
2022-09-03T06:44:12.303Z,7.07
2022-09-03T06:46:43.185Z,8.80
2022-09-03T06:49:11.397Z,5.68
2022-09-03T06:51:39.601Z,7.47
2022-09-03T06:54:08.686Z,6.38
2022-09-03T06:56:40.542Z,6.40
2022-09-03T06:59:09.802Z,6.28
2022-09-03T07:01:40.778Z,7.57
2022-09-03T07:04:16.114Z,7.03
2022-09-03T07:06:44.199Z,5.65
2022-09-03T07:09:13.171Z,7.78
2022-09-03T07:11:46.953Z,6.72
2022-09-03T07:14:15.850Z,6.53
2022-09-03T07:16:43.785Z,13.52
2022-09-03T07:19:13.416Z,17.92
2022-09-03T07:21:48.180Z,7.55
2022-09-03T07:24:17.997Z,10.60
2022-09-03T07:26:46.529Z,13.52
2022-09-03T07:29:15.753Z,11.75
2022-09-03T07:31:44.355Z,16.02
2022-09-03T07:34:16.397Z,23.85
2022-09-03T07:36:47.001Z,11.00
2022-09-03T07:39:18.143Z,11.02
2022-09-03T07:41:46.661Z,12.40
2022-09-03T07:44:16.132Z,10.90
2022-09-03T07:46:46.041Z,13.77
2022-09-03T07:49:14.968Z,17.33
2022-09-03T07:51:42.557Z,21.55
2022-09-03T07:54:11.919Z,22.48
2022-09-03T07:56:40.666Z,25.27
2022-09-03T07:59:08.692Z,28.88
2022-09-03T08:01:41.230Z,30.35
2022-09-03T08:04:10.883Z,23.58
2022-09-03T08:06:40.325Z,25.20
2022-09-03T08:09:11.303Z,29.23
2022-09-03T08:11:40.663Z,20.50
2022-09-03T08:14:10.336Z,18.92
2022-09-03T08:16:39.847Z,20.95
2022-09-03T08:19:07.599Z,17.70
2022-09-03T08:21:35.727Z,14.43
2022-09-03T08:24:05.663Z,17.52
2022-09-03T08:26:35.541Z,18.88
2022-09-03T08:29:04.465Z,16.98
2022-09-03T08:31:33.649Z,16.27
2022-09-03T08:34:06.671Z,16.55
2022-09-03T08:36:39.030Z,18.08
2022-09-03T08:39:10.673Z,22.00
2022-09-03T08:42:02.831Z,18.52
2022-09-03T08:44:35.752Z,22.00
2022-09-03T08:47:10.219Z,17.25
2022-09-03T08:49:44.695Z,24.52
2022-09-03T08:52:26.111Z,21.88
2022-09-03T08:55:01.424Z,22.85
2022-09-03T08:57:33.321Z,23.75
2022-09-03T09:00:00.940Z,18.83
2022-09-03T09:02:42.689Z,21.73
2022-09-03T09:05:14.317Z,27.35
2022-09-03T09:07:47.740Z,26.17
2022-09-03T09:10:23.689Z,23.17
2022-09-03T09:13:06.073Z,21.00
2022-09-03T09:15:41.754Z,24.63
2022-09-03T09:18:19.915Z,20.73
2022-09-03T09:20:50.917Z,22.75
2022-09-03T09:23:25.920Z,26.05
2022-09-03T09:25:58.520Z,29.48
2022-09-03T09:28:30.961Z,24.60
2022-09-03T09:30:58.862Z,28.45
2022-09-03T09:33:26.457Z,24.40
2022-09-03T09:35:53.932Z,24.90
2022-09-03T09:38:29.920Z,24.70
2022-09-03T09:41:09.907Z,19.23
2022-09-03T09:43:37.872Z,29.55
2022-09-03T09:46:10.381Z,23.42
2022-09-03T09:48:46.350Z,18.80
2022-09-03T09:51:18.901Z,28.70
2022-09-03T09:53:46.425Z,25.75
2022-09-03T09:56:23.946Z,22.98
2022-09-03T09:58:52.641Z,17.73
2022-09-03T10:01:25.741Z,20.13
2022-09-03T10:03:55.780Z,16.52
2022-09-03T10:06:43.369Z,21.17
2022-09-03T10:09:13.511Z,21.67
2022-09-03T10:11:46.919Z,20.25
2022-09-03T10:14:26.138Z,23.92
2022-09-03T10:17:01.744Z,22.75
2022-09-03T10:19:37.596Z,17.92
2022-09-03T10:22:10.950Z,21.10
2022-09-03T10:24:52.115Z,17.63
2022-09-03T10:27:22.121Z,17.38
2022-09-03T10:29:50.179Z,15.70
2022-09-03T10:32:37.796Z,22.60
2022-09-03T10:35:20.388Z,18.70
2022-09-03T10:37:54.336Z,27.17
2022-09-03T10:40:31.668Z,23.25
2022-09-03T10:43:17.711Z,32.47
2022-09-03T10:45:54.629Z,22.98
2022-09-03T10:48:35.340Z,21.65
2022-09-03T10:51:06.599Z,22.27
2022-09-03T10:53:49.910Z,21.40
2022-09-03T10:56:22.479Z,20.90
2022-09-03T10:59:04.596Z,23.08
2022-09-03T11:01:40.300Z,20.20
2022-09-03T11:04:26.531Z,30.98
2022-09-03T11:06:58.904Z,24.17
2022-09-03T11:09:32.570Z,20.58
2022-09-03T11:12:05.317Z,29.58
2022-09-03T11:14:39.169Z,29.88
2022-09-03T11:17:11.608Z,22.67
2022-09-03T11:19:48.203Z,24.67
2022-09-03T11:22:20.977Z,16.98
2022-09-03T11:24:55.271Z,26.80
2022-09-03T11:27:32.490Z,25.95
2022-09-03T11:30:05.936Z,19.90
2022-09-03T11:32:46.656Z,24.02
2022-09-03T11:35:16.659Z,20.80
2022-09-03T11:37:55.000Z,15.63
2022-09-03T11:40:33.109Z,18.15
2022-09-03T11:43:08.701Z,26.48
2022-09-03T11:45:39.184Z,21.48
2022-09-03T11:48:33.087Z,24.73
2022-09-03T11:51:00.551Z,17.17
2022-09-03T11:53:35.494Z,14.57
2022-09-03T11:56:19.325Z,13.32
2022-09-03T11:58:48.404Z,19.10
2022-09-03T12:01:19.185Z,22.27
2022-09-03T12:03:50.239Z,17.05
2022-09-03T12:06:43.311Z,20.48
2022-09-03T12:09:38.446Z,23.35
2022-09-03T12:12:23.843Z,23.73
2022-09-03T12:15:00.000Z,28.48
2022-09-03T12:17:35.982Z,30.65
2022-09-03T12:20:04.357Z,28.52
2022-09-03T12:22:38.646Z,23.90
2022-09-03T12:25:12.144Z,21.63
2022-09-03T12:27:41.515Z,30.85
2022-09-03T12:30:18.081Z,21.70
2022-09-03T12:32:47.421Z,21.85
2022-09-03T12:38:08.410Z,18.48
2022-09-03T12:41:19.173Z,21.88
2022-09-03T12:43:49.792Z,21.92
2022-09-03T12:46:17.635Z,20.65
2022-09-03T12:51:52.435Z,17.77
2022-09-03T12:54:23.159Z,16.30
2022-09-03T12:56:57.403Z,6.95
2022-09-03T12:59:28.276Z,7.10
2022-09-03T13:01:59.390Z,17.40
2022-09-03T13:04:32.834Z,12.45
2022-09-03T13:07:04.603Z,6.57
2022-09-03T13:09:36.844Z,12.45
2022-09-03T13:12:05.802Z,13.48
2022-09-03T13:14:44.681Z,8.02
2022-09-03T13:17:38.261Z,8.80
2022-09-03T13:20:26.731Z,9.07
2022-09-03T13:23:11.183Z,8.02
2022-09-03T13:25:49.429Z,9.90
2022-09-03T13:28:28.678Z,10.25
2022-09-03T13:31:01.594Z,14.20
2022-09-03T13:33:38.933Z,22.50
2022-09-03T13:36:15.778Z,24.25
2022-09-03T13:38:50.635Z,25.38
2022-09-03T13:41:34.648Z,25.90
2022-09-03T13:44:09.846Z,27.17
2022-09-03T13:46:44.332Z,25.40
2022-09-03T13:49:40.511Z,21.50
2022-09-03T13:52:22.685Z,25.35
2022-09-03T13:54:55.681Z,27.63
2022-09-03T13:57:33.712Z,27.92
2022-09-03T14:00:07.769Z,22.65
2022-09-03T14:02:49.747Z,47.03
2022-09-03T14:05:32.247Z,35.55
2022-09-03T14:08:10.118Z,37.05
2022-09-03T14:10:59.175Z,29.02
2022-09-03T14:13:38.051Z,28.83
2022-09-03T14:16:09.574Z,28.38
2022-09-03T14:18:47.266Z,29.45
2022-09-03T14:21:19.583Z,33.78
2022-09-03T14:23:52.367Z,26.42
2022-09-03T14:26:38.690Z,23.60
2022-09-03T14:29:15.645Z,41.03
2022-09-03T14:31:58.930Z,44.08
2022-09-03T14:34:39.113Z,46.47
2022-09-03T14:37:16.139Z,64.95
2022-09-03T14:39:51.840Z,47.88
2022-09-03T14:42:37.787Z,54.63
2022-09-03T14:45:24.620Z,27.98
2022-09-03T14:48:09.687Z,44.92
2022-09-03T14:51:06.247Z,65.47
2022-09-03T14:53:58.377Z,28.27
2022-09-03T14:56:41.822Z,33.00
2022-09-03T14:59:43.635Z,44.50
2022-09-03T15:02:31.011Z,64.55
2022-09-03T15:05:12.245Z,55.88
2022-09-03T15:07:47.731Z,56.58
2022-09-03T15:10:22.867Z,53.65
2022-09-03T15:12:54.261Z,57.10
2022-09-03T15:15:26.343Z,52.72
2022-09-03T15:18:10.861Z,53.38
2022-09-03T15:20:50.656Z,54.78
2022-09-03T15:23:47.100Z,42.67
2022-09-03T15:26:41.551Z,44.92
2022-09-03T15:29:30.124Z,39.85
2022-09-03T15:32:07.894Z,36.60
2022-09-03T15:34:51.711Z,33.72
2022-09-03T15:37:24.672Z,33.13
2022-09-03T15:40:02.483Z,35.85
2022-09-03T15:42:31.313Z,23.48
2022-09-03T15:45:07.398Z,21.42
2022-09-03T15:47:51.567Z,20.45
2022-09-03T15:50:30.527Z,18.10
2022-09-03T15:53:04.862Z,16.52
2022-09-03T15:55:37.018Z,17.02
2022-09-03T15:58:14.328Z,19.02
2022-09-03T16:01:00.122Z,19.23
2022-09-03T16:03:46.720Z,21.25
2022-09-03T16:06:26.140Z,22.77
2022-09-03T16:08:58.475Z,21.80
2022-09-03T16:11:37.094Z,20.08
2022-09-03T16:14:12.171Z,19.90
2022-09-03T16:16:54.993Z,21.60
2022-09-03T16:19:28.011Z,22.33
2022-09-03T16:22:00.801Z,23.70
2022-09-03T16:24:38.453Z,24.30
2022-09-03T16:27:12.179Z,23.42
2022-09-03T16:29:40.511Z,21.45
2022-09-03T16:32:27.027Z,21.42
2022-09-03T16:35:05.208Z,25.77
2022-09-03T16:37:39.400Z,21.92
2022-09-03T16:40:17.228Z,20.83
2022-09-03T16:42:51.715Z,23.10
2022-09-03T16:45:30.810Z,22.38
2022-09-03T16:48:17.354Z,20.80
2022-09-03T16:51:04.360Z,19.90
2022-09-03T16:53:50.465Z,22.85
2022-09-03T16:56:36.548Z,22.63
2022-09-03T16:59:17.849Z,19.60
2022-09-03T17:02:01.876Z,20.85
2022-09-03T17:04:54.700Z,32.75
2022-09-03T17:07:37.605Z,35.63
2022-09-03T17:10:14.535Z,34.92
2022-09-03T17:12:50.812Z,48.95
2022-09-03T17:15:31.420Z,52.70
2022-09-03T17:18:17.467Z,56.97
2022-09-03T17:21:01.823Z,45.40
2022-09-03T17:23:49.820Z,43.42
2022-09-03T17:26:29.240Z,39.80
2022-09-03T17:29:12.829Z,45.92
2022-09-03T17:31:51.383Z,28.55
2022-09-03T17:34:39.883Z,39.67
2022-09-03T17:37:23.123Z,79.95
2022-09-03T17:40:08.911Z,84.00
2022-09-03T17:42:49.840Z,68.40
2022-09-03T17:45:28.165Z,75.38
2022-09-03T17:48:14.850Z,61.50
2022-09-03T17:50:51.151Z,56.35
2022-09-03T17:53:26.046Z,73.22
2022-09-03T17:55:58.679Z,73.97
2022-09-03T17:58:32.619Z,109.25
2022-09-03T18:01:07.895Z,64.90
2022-09-03T18:03:44.966Z,80.90
2022-09-03T18:06:24.001Z,98.10
2022-09-03T18:08:58.684Z,95.72
2022-09-03T18:11:34.062Z,79.50
2022-09-03T18:14:11.185Z,85.13
2022-09-03T18:16:43.352Z,87.68
2022-09-03T18:19:19.419Z,91.03
2022-09-03T18:22:07.802Z,84.07
2022-09-03T18:25:01.967Z,93.28
2022-09-03T18:27:52.497Z,65.82
2022-09-03T18:30:37.854Z,65.32
2022-09-03T18:33:23.451Z,61.25
2022-09-03T18:36:08.208Z,71.68
2022-09-03T18:38:55.075Z,67.82
2022-09-03T18:42:03.443Z,68.97
2022-09-03T18:45:20.241Z,60.30
2022-09-03T18:48:20.766Z,85.05
2022-09-03T18:51:15.529Z,70.38
2022-09-03T18:54:08.874Z,81.47
2022-09-03T18:57:01.483Z,70.88
2022-09-03T19:00:19.115Z,68.57
2022-09-03T19:03:15.648Z,78.57
2022-09-03T19:06:14.265Z,76.68
2022-09-03T19:09:07.284Z,73.10
2022-09-03T19:12:00.068Z,72.80
2022-09-03T19:14:53.375Z,75.00
2022-09-03T19:17:48.765Z,76.47
2022-09-03T19:20:43.685Z,76.13
2022-09-03T19:23:28.863Z,73.65
2022-09-03T19:26:19.542Z,72.80
2022-09-03T19:29:10.671Z,80.10
2022-09-03T19:32:03.551Z,75.82
2022-09-03T19:35:10.631Z,80.00
2022-09-03T19:38:00.071Z,72.57
2022-09-03T19:40:59.539Z,78.65
2022-09-03T19:43:55.004Z,73.53
2022-09-03T19:46:52.755Z,63.92
2022-09-03T19:49:48.760Z,65.78
2022-09-03T19:52:43.179Z,61.95
2022-09-03T19:55:31.549Z,72.30
2022-09-03T19:58:41.493Z,71.30
2022-09-03T20:01:24.585Z,71.47
2022-09-03T20:04:11.285Z,73.30
2022-09-03T20:06:57.584Z,73.47
2022-09-03T20:09:48.438Z,70.03
2022-09-03T20:12:21.020Z,72.75
2022-09-03T20:14:48.646Z,75.57
2022-09-03T20:17:27.968Z,79.07
2022-09-03T20:20:16.621Z,77.53
2022-09-03T20:22:51.852Z,78.22
2022-09-03T20:25:36.111Z,80.43
2022-09-03T20:28:15.578Z,74.88
2022-09-03T20:30:48.866Z,76.75
2022-09-03T20:33:32.083Z,70.35
2022-09-03T20:36:14.893Z,68.57
2022-09-03T20:39:11.022Z,71.65
2022-09-03T20:41:50.143Z,74.22
2022-09-03T20:44:33.197Z,66.65
2022-09-03T20:47:16.013Z,66.13
2022-09-03T20:49:53.981Z,70.53
2022-09-03T20:52:34.234Z,75.32
2022-09-03T20:55:08.846Z,74.95
2022-09-03T20:57:45.669Z,71.80
2022-09-03T21:00:15.722Z,71.57
2022-09-03T21:03:03.623Z,70.55
2022-09-03T21:05:35.583Z,78.80
2022-09-03T21:08:13.195Z,70.97
2022-09-03T21:10:49.011Z,71.78
2022-09-03T21:13:32.685Z,76.45
2022-09-03T21:16:25.287Z,68.85
2022-09-03T21:19:00.472Z,70.45
2022-09-03T21:21:40.328Z,74.75
2022-09-03T21:24:15.547Z,69.90
2022-09-03T21:26:50.456Z,71.93
2022-09-03T21:29:24.205Z,72.85
2022-09-03T21:31:57.392Z,74.70
2022-09-03T21:34:30.835Z,77.40
2022-09-03T21:37:00.756Z,72.53
2022-09-03T21:39:33.386Z,73.25
2022-09-03T21:42:06.445Z,67.00
2022-09-03T21:44:51.775Z,68.55
2022-09-03T21:47:21.231Z,72.68
2022-09-03T21:50:03.588Z,59.58
2022-09-03T21:52:40.580Z,67.18
2022-09-03T21:55:32.173Z,66.63
2022-09-03T21:58:11.243Z,62.72
2022-09-03T22:00:39.306Z,68.38
2022-09-03T22:03:09.628Z,72.32
2022-09-03T22:05:49.660Z,73.28
2022-09-03T22:08:25.226Z,81.50
2022-09-03T22:11:01.533Z,385.75
2022-09-03T22:13:32.529Z,160.98
2022-09-03T22:16:13.641Z,143.05
2022-09-03T22:18:41.347Z,70.50
2022-09-03T22:21:19.714Z,224.00
2022-09-03T22:24:07.206Z,93.40
2022-09-03T22:26:45.547Z,103.78
2022-09-03T22:29:20.344Z,66.07
2022-09-03T22:31:58.350Z,64.38
2022-09-03T22:34:46.889Z,67.32
2022-09-03T22:37:25.143Z,65.32
2022-09-03T22:40:03.910Z,64.18
2022-09-03T22:42:47.676Z,66.57
2022-09-03T22:45:40.543Z,64.32
2022-09-03T22:48:22.852Z,62.83
2022-09-03T22:50:57.530Z,85.10
2022-09-03T22:53:42.663Z,139.32
2022-09-03T22:56:12.697Z,60.95
2022-09-03T22:58:47.516Z,63.97
2022-09-03T23:01:19.102Z,70.93
2022-09-03T23:03:54.402Z,370.25
2022-09-03T23:06:26.949Z,222.57
2022-09-03T23:09:01.292Z,67.40
2022-09-03T23:11:34.579Z,66.05
2022-09-03T23:14:06.222Z,66.22
2022-09-03T23:16:39.392Z,70.75
2022-09-03T23:21:57.728Z,77.25
2022-09-03T23:24:29.721Z,53.78
2022-09-03T23:27:01.238Z,53.25
2022-09-03T23:29:36.577Z,59.67
2022-09-03T23:32:05.209Z,65.90
2022-09-03T23:34:33.372Z,61.28
2022-09-03T23:37:35.320Z,84.55
2022-09-03T23:40:21.025Z,155.82
2022-09-03T23:43:05.507Z,166.15
2022-09-03T23:45:44.116Z,62.42
2022-09-03T23:48:23.798Z,65.50
2022-09-03T23:51:03.877Z,71.57
2022-09-03T23:53:47.312Z,59.70
2022-09-03T23:56:35.760Z,160.73
2022-09-03T23:59:13.420Z,143.38
